sensor_id;sensor_type;location;lat;lon;timestamp;P1;durP1;ratioP1;P2;durP2;ratioP2
8293;SDS011;4185;41.506;24.938;2023-05-17T00:01:29;9.30;;;4.73;;
8293;SDS011;4185;41.506;24.938;2023-05-17T00:03:55;10.47;;;4.33;;
8293;SDS011;4185;41.506;24.938;2023-05-17T00:06:23;12.03;;;4.23;;
8293;SDS011;4185;41.506;24.938;2023-05-17T00:08:49;9.83;;;4.43;;
8293;SDS011;4185;41.506;24.938;2023-05-17T00:11:16;9.57;;;4.70;;
8293;SDS011;4185;41.506;24.938;2023-05-17T00:13:44;11.10;;;4.97;;
8293;SDS011;4185;41.506;24.938;2023-05-17T00:16:11;12.17;;;5.30;;
8293;SDS011;4185;41.506;24.938;2023-05-17T00:18:38;7.40;;;4.60;;
8293;SDS011;4185;41.506;24.938;2023-05-17T00:21:04;11.00;;;4.80;;
8293;SDS011;4185;41.506;24.938;2023-05-17T00:23:31;8.93;;;4.70;;
8293;SDS011;4185;41.506;24.938;2023-05-17T00:25:58;8.50;;;4.83;;
8293;SDS011;4185;41.506;24.938;2023-05-17T00:28:25;11.63;;;4.50;;
8293;SDS011;4185;41.506;24.938;2023-05-17T00:30:53;8.27;;;4.37;;
8293;SDS011;4185;41.506;24.938;2023-05-17T00:33:20;9.57;;;4.37;;
8293;SDS011;4185;41.506;24.938;2023-05-17T00:35:46;9.60;;;4.57;;
8293;SDS011;4185;41.506;24.938;2023-05-17T00:38:13;13.33;;;4.93;;
8293;SDS011;4185;41.506;24.938;2023-05-17T00:40:40;13.00;;;5.50;;
8293;SDS011;4185;41.506;24.938;2023-05-17T00:43:07;11.63;;;5.20;;
8293;SDS011;4185;41.506;24.938;2023-05-17T00:45:33;11.20;;;4.90;;
8293;SDS011;4185;41.506;24.938;2023-05-17T00:48:02;8.77;;;5.00;;
8293;SDS011;4185;41.506;24.938;2023-05-17T00:50:29;9.23;;;4.87;;
8293;SDS011;4185;41.506;24.938;2023-05-17T00:52:55;10.77;;;4.60;;
8293;SDS011;4185;41.506;24.938;2023-05-17T00:55:22;10.40;;;4.30;;
8293;SDS011;4185;41.506;24.938;2023-05-17T00:57:49;7.67;;;3.90;;
8293;SDS011;4185;41.506;24.938;2023-05-17T01:00:16;8.40;;;4.20;;
8293;SDS011;4185;41.506;24.938;2023-05-17T01:02:43;7.97;;;4.20;;
8293;SDS011;4185;41.506;24.938;2023-05-17T01:05:14;8.83;;;4.53;;
8293;SDS011;4185;41.506;24.938;2023-05-17T01:07:40;6.07;;;4.27;;
8293;SDS011;4185;41.506;24.938;2023-05-17T01:10:07;10.67;;;4.10;;
8293;SDS011;4185;41.506;24.938;2023-05-17T01:12:37;6.63;;;3.80;;
8293;SDS011;4185;41.506;24.938;2023-05-17T01:15:18;9.07;;;3.73;;
8293;SDS011;4185;41.506;24.938;2023-05-17T01:17:51;8.23;;;4.37;;
8293;SDS011;4185;41.506;24.938;2023-05-17T01:20:25;6.87;;;4.20;;
8293;SDS011;4185;41.506;24.938;2023-05-17T01:22:57;14.60;;;5.17;;
8293;SDS011;4185;41.506;24.938;2023-05-17T01:25:39;11.07;;;4.73;;
8293;SDS011;4185;41.506;24.938;2023-05-17T01:28:17;9.57;;;4.60;;
8293;SDS011;4185;41.506;24.938;2023-05-17T01:30:46;11.20;;;5.20;;
8293;SDS011;4185;41.506;24.938;2023-05-17T01:33:16;8.03;;;3.93;;
8293;SDS011;4185;41.506;24.938;2023-05-17T01:35:44;7.77;;;4.20;;
8293;SDS011;4185;41.506;24.938;2023-05-17T01:38:11;12.30;;;4.53;;
8293;SDS011;4185;41.506;24.938;2023-05-17T01:40:40;11.60;;;4.73;;
8293;SDS011;4185;41.506;24.938;2023-05-17T01:43:13;11.33;;;4.80;;
8293;SDS011;4185;41.506;24.938;2023-05-17T01:45:54;11.13;;;4.60;;
8293;SDS011;4185;41.506;24.938;2023-05-17T01:48:27;9.67;;;4.67;;
8293;SDS011;4185;41.506;24.938;2023-05-17T01:50:59;8.50;;;4.30;;
8293;SDS011;4185;41.506;24.938;2023-05-17T01:53:28;12.30;;;4.80;;
8293;SDS011;4185;41.506;24.938;2023-05-17T01:56:00;9.30;;;4.63;;
8293;SDS011;4185;41.506;24.938;2023-05-17T01:58:30;7.87;;;4.93;;
8293;SDS011;4185;41.506;24.938;2023-05-17T02:01:05;8.70;;;4.60;;
8293;SDS011;4185;41.506;24.938;2023-05-17T02:03:32;9.80;;;4.50;;
8293;SDS011;4185;41.506;24.938;2023-05-17T02:05:59;9.90;;;4.47;;
8293;SDS011;4185;41.506;24.938;2023-05-17T02:08:26;9.23;;;4.60;;
8293;SDS011;4185;41.506;24.938;2023-05-17T02:10:53;8.77;;;4.07;;
8293;SDS011;4185;41.506;24.938;2023-05-17T02:13:20;12.37;;;4.87;;
8293;SDS011;4185;41.506;24.938;2023-05-17T02:15:48;6.43;;;4.20;;
8293;SDS011;4185;41.506;24.938;2023-05-17T02:18:14;7.97;;;4.00;;
8293;SDS011;4185;41.506;24.938;2023-05-17T02:20:41;7.97;;;3.80;;
8293;SDS011;4185;41.506;24.938;2023-05-17T02:23:08;10.27;;;4.27;;
8293;SDS011;4185;41.506;24.938;2023-05-17T02:25:35;6.27;;;4.03;;
8293;SDS011;4185;41.506;24.938;2023-05-17T02:28:02;12.70;;;5.17;;
8293;SDS011;4185;41.506;24.938;2023-05-17T02:30:29;8.60;;;4.83;;
8293;SDS011;4185;41.506;24.938;2023-05-17T02:32:57;10.47;;;5.00;;
8293;SDS011;4185;41.506;24.938;2023-05-17T02:35:23;9.50;;;4.57;;
8293;SDS011;4185;41.506;24.938;2023-05-17T02:37:50;7.50;;;4.63;;
8293;SDS011;4185;41.506;24.938;2023-05-17T02:40:17;8.80;;;4.13;;
8293;SDS011;4185;41.506;24.938;2023-05-17T02:42:44;10.03;;;4.73;;
8293;SDS011;4185;41.506;24.938;2023-05-17T02:45:10;12.93;;;4.77;;
8293;SDS011;4185;41.506;24.938;2023-05-17T02:47:37;11.27;;;5.20;;
8293;SDS011;4185;41.506;24.938;2023-05-17T02:50:06;14.63;;;5.43;;
8293;SDS011;4185;41.506;24.938;2023-05-17T02:52:33;14.83;;;5.97;;
8293;SDS011;4185;41.506;24.938;2023-05-17T02:55:00;15.80;;;6.10;;
8293;SDS011;4185;41.506;24.938;2023-05-17T02:57:26;13.50;;;5.93;;
8293;SDS011;4185;41.506;24.938;2023-05-17T02:59:53;10.93;;;5.93;;
8293;SDS011;4185;41.506;24.938;2023-05-17T03:02:20;11.07;;;4.93;;
8293;SDS011;4185;41.506;24.938;2023-05-17T03:04:46;8.77;;;4.93;;
8293;SDS011;4185;41.506;24.938;2023-05-17T03:07:15;13.77;;;4.87;;
8293;SDS011;4185;41.506;24.938;2023-05-17T03:09:41;12.23;;;4.93;;
8293;SDS011;4185;41.506;24.938;2023-05-17T03:12:08;13.20;;;6.07;;
8293;SDS011;4185;41.506;24.938;2023-05-17T03:14:35;12.37;;;6.03;;
8293;SDS011;4185;41.506;24.938;2023-05-17T03:17:02;12.57;;;6.23;;
8293;SDS011;4185;41.506;24.938;2023-05-17T03:19:29;11.07;;;5.47;;
8293;SDS011;4185;41.506;24.938;2023-05-17T03:21:55;18.43;;;6.67;;
8293;SDS011;4185;41.506;24.938;2023-05-17T03:24:24;12.87;;;6.33;;
8293;SDS011;4185;41.506;24.938;2023-05-17T03:26:50;15.30;;;6.13;;
8293;SDS011;4185;41.506;24.938;2023-05-17T03:29:17;9.83;;;4.50;;
8293;SDS011;4185;41.506;24.938;2023-05-17T03:31:44;9.43;;;4.77;;
8293;SDS011;4185;41.506;24.938;2023-05-17T03:34:11;11.40;;;4.60;;
8293;SDS011;4185;41.506;24.938;2023-05-17T03:36:37;8.00;;;3.97;;
8293;SDS011;4185;41.506;24.938;2023-05-17T03:39:05;8.77;;;4.23;;
8293;SDS011;4185;41.506;24.938;2023-05-17T03:41:33;6.07;;;3.73;;
8293;SDS011;4185;41.506;24.938;2023-05-17T03:44:00;7.83;;;4.33;;
8293;SDS011;4185;41.506;24.938;2023-05-17T03:46:27;7.73;;;4.10;;
8293;SDS011;4185;41.506;24.938;2023-05-17T03:48:53;7.30;;;3.90;;
8293;SDS011;4185;41.506;24.938;2023-05-17T03:51:20;7.90;;;4.03;;
8293;SDS011;4185;41.506;24.938;2023-05-17T03:53:47;7.10;;;3.77;;
8293;SDS011;4185;41.506;24.938;2023-05-17T03:56:15;8.57;;;4.43;;
8293;SDS011;4185;41.506;24.938;2023-05-17T03:58:44;9.53;;;4.80;;
8293;SDS011;4185;41.506;24.938;2023-05-17T04:01:11;9.27;;;4.37;;
8293;SDS011;4185;41.506;24.938;2023-05-17T04:03:38;8.20;;;4.33;;
8293;SDS011;4185;41.506;24.938;2023-05-17T04:06:05;11.37;;;4.17;;
8293;SDS011;4185;41.506;24.938;2023-05-17T04:08:32;8.40;;;3.57;;
8293;SDS011;4185;41.506;24.938;2023-05-17T04:10:59;7.33;;;4.23;;
8293;SDS011;4185;41.506;24.938;2023-05-17T04:13:34;11.57;;;4.17;;
8293;SDS011;4185;41.506;24.938;2023-05-17T04:16:03;7.57;;;4.50;;
8293;SDS011;4185;41.506;24.938;2023-05-17T04:18:31;11.30;;;5.50;;
8293;SDS011;4185;41.506;24.938;2023-05-17T04:20:59;9.80;;;4.77;;
8293;SDS011;4185;41.506;24.938;2023-05-17T04:23:26;7.33;;;4.70;;
8293;SDS011;4185;41.506;24.938;2023-05-17T04:25:53;14.77;;;6.10;;
8293;SDS011;4185;41.506;24.938;2023-05-17T04:28:20;13.50;;;5.67;;
8293;SDS011;4185;41.506;24.938;2023-05-17T04:30:47;9.07;;;5.40;;
8293;SDS011;4185;41.506;24.938;2023-05-17T04:33:15;11.77;;;5.03;;
8293;SDS011;4185;41.506;24.938;2023-05-17T04:35:42;10.70;;;5.33;;
8293;SDS011;4185;41.506;24.938;2023-05-17T04:38:09;12.10;;;5.57;;
8293;SDS011;4185;41.506;24.938;2023-05-17T04:40:36;9.80;;;5.20;;
8293;SDS011;4185;41.506;24.938;2023-05-17T04:43:03;9.63;;;5.30;;
8293;SDS011;4185;41.506;24.938;2023-05-17T04:45:30;12.50;;;5.90;;
8293;SDS011;4185;41.506;24.938;2023-05-17T04:47:57;11.03;;;5.13;;
8293;SDS011;4185;41.506;24.938;2023-05-17T04:50:25;10.00;;;5.60;;
8293;SDS011;4185;41.506;24.938;2023-05-17T04:52:52;9.07;;;5.80;;
8293;SDS011;4185;41.506;24.938;2023-05-17T04:55:19;11.93;;;5.87;;
8293;SDS011;4185;41.506;24.938;2023-05-17T04:57:49;12.70;;;8.13;;
8293;SDS011;4185;41.506;24.938;2023-05-17T05:00:16;7.50;;;4.97;;
8293;SDS011;4185;41.506;24.938;2023-05-17T05:02:45;10.07;;;6.00;;
8293;SDS011;4185;41.506;24.938;2023-05-17T05:05:12;12.77;;;7.60;;
8293;SDS011;4185;41.506;24.938;2023-05-17T05:07:40;10.53;;;5.83;;
8293;SDS011;4185;41.506;24.938;2023-05-17T05:10:07;11.50;;;5.80;;
8293;SDS011;4185;41.506;24.938;2023-05-17T05:12:34;11.80;;;5.83;;
8293;SDS011;4185;41.506;24.938;2023-05-17T05:15:00;11.10;;;5.40;;
8293;SDS011;4185;41.506;24.938;2023-05-17T05:17:28;15.17;;;7.97;;
8293;SDS011;4185;41.506;24.938;2023-05-17T05:19:55;11.93;;;7.17;;
8293;SDS011;4185;41.506;24.938;2023-05-17T05:22:22;7.60;;;5.37;;
8293;SDS011;4185;41.506;24.938;2023-05-17T05:24:50;8.53;;;5.33;;
8293;SDS011;4185;41.506;24.938;2023-05-17T05:27:17;10.60;;;5.77;;
8293;SDS011;4185;41.506;24.938;2023-05-17T05:29:44;7.57;;;4.30;;
8293;SDS011;4185;41.506;24.938;2023-05-17T05:32:11;8.10;;;5.53;;
8293;SDS011;4185;41.506;24.938;2023-05-17T05:34:39;13.97;;;9.33;;
8293;SDS011;4185;41.506;24.938;2023-05-17T05:37:06;22.50;;;10.63;;
8293;SDS011;4185;41.506;24.938;2023-05-17T05:39:33;9.53;;;5.50;;
8293;SDS011;4185;41.506;24.938;2023-05-17T05:42:03;8.67;;;4.80;;
8293;SDS011;4185;41.506;24.938;2023-05-17T05:44:30;7.30;;;4.53;;
8293;SDS011;4185;41.506;24.938;2023-05-17T05:46:57;6.27;;;4.30;;
8293;SDS011;4185;41.506;24.938;2023-05-17T05:49:24;7.00;;;3.90;;
8293;SDS011;4185;41.506;24.938;2023-05-17T05:51:51;14.37;;;7.90;;
8293;SDS011;4185;41.506;24.938;2023-05-17T05:54:18;15.57;;;9.57;;
8293;SDS011;4185;41.506;24.938;2023-05-17T05:56:45;9.70;;;7.10;;
8293;SDS011;4185;41.506;24.938;2023-05-17T05:59:13;9.67;;;5.27;;
8293;SDS011;4185;41.506;24.938;2023-05-17T06:01:40;8.73;;;4.93;;
8293;SDS011;4185;41.506;24.938;2023-05-17T06:04:07;8.17;;;5.10;;
8293;SDS011;4185;41.506;24.938;2023-05-17T06:06:34;8.73;;;5.40;;
8293;SDS011;4185;41.506;24.938;2023-05-17T06:09:01;9.90;;;4.87;;
8293;SDS011;4185;41.506;24.938;2023-05-17T06:11:28;8.17;;;4.90;;
8293;SDS011;4185;41.506;24.938;2023-05-17T06:28:14;8.20;;;4.27;;
8293;SDS011;4185;41.506;24.938;2023-05-17T06:30:43;7.90;;;5.03;;
8293;SDS011;4185;41.506;24.938;2023-05-17T06:33:10;7.83;;;4.60;;
8293;SDS011;4185;41.506;24.938;2023-05-17T06:35:37;8.20;;;4.57;;
8293;SDS011;4185;41.506;24.938;2023-05-17T06:38:04;7.53;;;4.47;;
8293;SDS011;4185;41.506;24.938;2023-05-17T06:40:31;8.23;;;4.40;;
8293;SDS011;4185;41.506;24.938;2023-05-17T06:42:58;7.83;;;4.10;;
8293;SDS011;4185;41.506;24.938;2023-05-17T06:45:27;7.57;;;4.10;;
8293;SDS011;4185;41.506;24.938;2023-05-17T06:47:54;4.53;;;3.80;;
8293;SDS011;4185;41.506;24.938;2023-05-17T06:50:23;8.13;;;4.30;;
8293;SDS011;4185;41.506;24.938;2023-05-17T06:52:52;8.87;;;4.97;;
8293;SDS011;4185;41.506;24.938;2023-05-17T06:55:19;11.30;;;5.33;;
8293;SDS011;4185;41.506;24.938;2023-05-17T06:57:46;9.90;;;5.17;;
8293;SDS011;4185;41.506;24.938;2023-05-17T07:00:15;8.17;;;6.07;;
8293;SDS011;4185;41.506;24.938;2023-05-17T07:02:44;9.37;;;5.33;;
8293;SDS011;4185;41.506;24.938;2023-05-17T07:05:10;9.43;;;5.00;;
8293;SDS011;4185;41.506;24.938;2023-05-17T07:07:37;8.47;;;4.73;;
8293;SDS011;4185;41.506;24.938;2023-05-17T07:10:05;8.27;;;4.87;;
8293;SDS011;4185;41.506;24.938;2023-05-17T07:12:32;10.23;;;4.90;;
8293;SDS011;4185;41.506;24.938;2023-05-17T07:14:59;9.97;;;4.67;;
8293;SDS011;4185;41.506;24.938;2023-05-17T07:17:25;13.23;;;5.37;;
8293;SDS011;4185;41.506;24.938;2023-05-17T07:19:54;10.77;;;5.17;;
8293;SDS011;4185;41.506;24.938;2023-05-17T07:22:20;9.60;;;5.90;;
8293;SDS011;4185;41.506;24.938;2023-05-17T07:24:47;11.40;;;4.50;;
8293;SDS011;4185;41.506;24.938;2023-05-17T07:27:15;6.83;;;4.27;;
8293;SDS011;4185;41.506;24.938;2023-05-17T07:29:41;9.20;;;4.53;;
8293;SDS011;4185;41.506;24.938;2023-05-17T07:32:08;8.17;;;5.00;;
8293;SDS011;4185;41.506;24.938;2023-05-17T07:34:35;10.27;;;5.07;;
8293;SDS011;4185;41.506;24.938;2023-05-17T07:37:03;11.10;;;5.53;;
8293;SDS011;4185;41.506;24.938;2023-05-17T07:39:31;8.60;;;4.43;;
8293;SDS011;4185;41.506;24.938;2023-05-17T07:41:58;6.83;;;4.10;;
8293;SDS011;4185;41.506;24.938;2023-05-17T07:44:25;6.90;;;3.83;;
8293;SDS011;4185;41.506;24.938;2023-05-17T07:46:52;8.37;;;4.13;;
8293;SDS011;4185;41.506;24.938;2023-05-17T07:49:19;7.37;;;3.47;;
8293;SDS011;4185;41.506;24.938;2023-05-17T07:51:46;6.13;;;3.63;;
8293;SDS011;4185;41.506;24.938;2023-05-17T08:31:41;13.77;;;6.33;;
8293;SDS011;4185;41.506;24.938;2023-05-17T08:34:09;10.93;;;5.87;;
8293;SDS011;4185;41.506;24.938;2023-05-17T08:36:36;10.80;;;6.23;;
8293;SDS011;4185;41.506;24.938;2023-05-17T08:39:03;16.67;;;7.30;;
8293;SDS011;4185;41.506;24.938;2023-05-17T08:41:32;9.57;;;6.63;;
8293;SDS011;4185;41.506;24.938;2023-05-17T08:43:59;11.57;;;6.80;;
8293;SDS011;4185;41.506;24.938;2023-05-17T08:46:28;10.97;;;6.73;;
8293;SDS011;4185;41.506;24.938;2023-05-17T08:48:57;13.37;;;6.80;;
8293;SDS011;4185;41.506;24.938;2023-05-17T08:51:26;8.97;;;6.33;;
8293;SDS011;4185;41.506;24.938;2023-05-17T08:53:53;13.87;;;7.47;;
8293;SDS011;4185;41.506;24.938;2023-05-17T08:56:20;12.90;;;8.20;;
8293;SDS011;4185;41.506;24.938;2023-05-17T08:58:51;13.90;;;7.43;;
8293;SDS011;4185;41.506;24.938;2023-05-17T09:01:20;10.67;;;6.47;;
8293;SDS011;4185;41.506;24.938;2023-05-17T09:03:48;8.83;;;6.43;;
8293;SDS011;4185;41.506;24.938;2023-05-17T09:06:18;10.60;;;6.80;;
8293;SDS011;4185;41.506;24.938;2023-05-17T09:08:46;10.80;;;7.23;;
8293;SDS011;4185;41.506;24.938;2023-05-17T09:11:23;9.63;;;6.90;;
8293;SDS011;4185;41.506;24.938;2023-05-17T09:13:51;12.20;;;7.50;;
8293;SDS011;4185;41.506;24.938;2023-05-17T09:16:18;10.57;;;6.80;;
8293;SDS011;4185;41.506;24.938;2023-05-17T09:18:52;11.07;;;7.17;;
8293;SDS011;4185;41.506;24.938;2023-05-17T09:21:21;9.47;;;6.47;;
8293;SDS011;4185;41.506;24.938;2023-05-17T09:23:48;14.17;;;9.60;;
8293;SDS011;4185;41.506;24.938;2023-05-17T09:26:16;17.47;;;12.30;;
8293;SDS011;4185;41.506;24.938;2023-05-17T09:28:43;13.20;;;7.60;;
8293;SDS011;4185;41.506;24.938;2023-05-17T09:31:11;9.97;;;8.00;;
8293;SDS011;4185;41.506;24.938;2023-05-17T09:33:43;9.57;;;8.10;;
8293;SDS011;4185;41.506;24.938;2023-05-17T09:36:14;9.80;;;6.77;;
8293;SDS011;4185;41.506;24.938;2023-05-17T09:38:43;10.13;;;7.80;;
8293;SDS011;4185;41.506;24.938;2023-05-17T09:41:18;8.90;;;7.07;;
8293;SDS011;4185;41.506;24.938;2023-05-17T09:43:46;7.13;;;6.40;;
8293;SDS011;4185;41.506;24.938;2023-05-17T09:46:13;12.33;;;7.40;;
8293;SDS011;4185;41.506;24.938;2023-05-17T09:48:40;10.80;;;6.00;;
8293;SDS011;4185;41.506;24.938;2023-05-17T09:51:10;7.37;;;5.83;;
8293;SDS011;4185;41.506;24.938;2023-05-17T09:53:38;16.97;;;11.97;;
8293;SDS011;4185;41.506;24.938;2023-05-17T09:56:08;26.80;;;16.60;;
8293;SDS011;4185;41.506;24.938;2023-05-17T09:58:36;8.53;;;5.70;;
8293;SDS011;4185;41.506;24.938;2023-05-17T10:01:03;11.97;;;7.80;;
8293;SDS011;4185;41.506;24.938;2023-05-17T10:03:33;10.67;;;7.03;;
8293;SDS011;4185;41.506;24.938;2023-05-17T10:06:01;11.13;;;7.00;;
8293;SDS011;4185;41.506;24.938;2023-05-17T10:08:31;6.07;;;4.60;;
8293;SDS011;4185;41.506;24.938;2023-05-17T10:10:59;7.90;;;4.23;;
8293;SDS011;4185;41.506;24.938;2023-05-17T10:13:33;7.10;;;4.20;;
8293;SDS011;4185;41.506;24.938;2023-05-17T10:16:04;7.73;;;4.47;;
8293;SDS011;4185;41.506;24.938;2023-05-17T10:18:32;8.47;;;4.30;;
8293;SDS011;4185;41.506;24.938;2023-05-17T10:21:00;6.50;;;4.20;;
8293;SDS011;4185;41.506;24.938;2023-05-17T10:23:27;6.53;;;4.40;;
8293;SDS011;4185;41.506;24.938;2023-05-17T10:25:55;7.47;;;5.37;;
8293;SDS011;4185;41.506;24.938;2023-05-17T10:28:24;8.13;;;4.53;;
8293;SDS011;4185;41.506;24.938;2023-05-17T10:30:53;5.90;;;4.27;;
8293;SDS011;4185;41.506;24.938;2023-05-17T10:33:22;6.30;;;3.63;;
8293;SDS011;4185;41.506;24.938;2023-05-17T10:35:52;6.37;;;4.70;;
8293;SDS011;4185;41.506;24.938;2023-05-17T10:38:20;8.83;;;4.97;;
8293;SDS011;4185;41.506;24.938;2023-05-17T10:40:47;7.40;;;4.80;;
8293;SDS011;4185;41.506;24.938;2023-05-17T10:43:16;7.50;;;4.33;;
8293;SDS011;4185;41.506;24.938;2023-05-17T10:45:45;6.70;;;4.33;;
8293;SDS011;4185;41.506;24.938;2023-05-17T10:48:13;5.37;;;3.70;;
8293;SDS011;4185;41.506;24.938;2023-05-17T10:50:43;7.73;;;4.77;;
8293;SDS011;4185;41.506;24.938;2023-05-17T10:53:11;8.87;;;4.10;;
8293;SDS011;4185;41.506;24.938;2023-05-17T10:55:39;6.93;;;4.37;;
8293;SDS011;4185;41.506;24.938;2023-05-17T10:58:13;7.43;;;4.30;;
8293;SDS011;4185;41.506;24.938;2023-05-17T11:00:42;6.87;;;4.13;;
8293;SDS011;4185;41.506;24.938;2023-05-17T11:03:11;6.17;;;3.80;;
8293;SDS011;4185;41.506;24.938;2023-05-17T11:05:41;6.93;;;4.20;;
8293;SDS011;4185;41.506;24.938;2023-05-17T11:08:13;9.53;;;4.27;;
8293;SDS011;4185;41.506;24.938;2023-05-17T11:16:23;6.13;;;4.10;;
8293;SDS011;4185;41.506;24.938;2023-05-17T11:19:06;6.33;;;4.33;;
8293;SDS011;4185;41.506;24.938;2023-05-17T11:21:35;7.27;;;4.27;;
8293;SDS011;4185;41.506;24.938;2023-05-17T11:24:10;6.50;;;3.97;;
8293;SDS011;4185;41.506;24.938;2023-05-17T11:26:43;6.97;;;4.10;;
8293;SDS011;4185;41.506;24.938;2023-05-17T11:29:10;7.90;;;3.93;;
8293;SDS011;4185;41.506;24.938;2023-05-17T11:31:41;6.37;;;3.87;;
8293;SDS011;4185;41.506;24.938;2023-05-17T11:34:11;8.37;;;4.03;;
8293;SDS011;4185;41.506;24.938;2023-05-17T11:36:49;6.83;;;4.07;;
8293;SDS011;4185;41.506;24.938;2023-05-17T11:39:18;8.03;;;4.10;;
8293;SDS011;4185;41.506;24.938;2023-05-17T11:41:47;8.30;;;4.30;;
8293;SDS011;4185;41.506;24.938;2023-05-17T11:44:15;7.03;;;3.73;;
8293;SDS011;4185;41.506;24.938;2023-05-17T11:46:43;7.70;;;3.83;;
8293;SDS011;4185;41.506;24.938;2023-05-17T11:49:11;6.03;;;3.43;;
8293;SDS011;4185;41.506;24.938;2023-05-17T11:51:39;5.93;;;3.73;;
8293;SDS011;4185;41.506;24.938;2023-05-17T11:54:07;5.67;;;3.80;;
8293;SDS011;4185;41.506;24.938;2023-05-17T11:56:36;7.87;;;4.30;;
8293;SDS011;4185;41.506;24.938;2023-05-17T11:59:05;6.83;;;3.40;;
8293;SDS011;4185;41.506;24.938;2023-05-17T12:01:41;6.37;;;3.77;;
8293;SDS011;4185;41.506;24.938;2023-05-17T12:04:08;7.57;;;3.87;;
8293;SDS011;4185;41.506;24.938;2023-05-17T12:06:36;5.43;;;3.80;;
8293;SDS011;4185;41.506;24.938;2023-05-17T12:09:04;5.93;;;3.90;;
8293;SDS011;4185;41.506;24.938;2023-05-17T12:11:35;6.53;;;4.40;;
8293;SDS011;4185;41.506;24.938;2023-05-17T12:14:03;10.40;;;4.60;;
8293;SDS011;4185;41.506;24.938;2023-05-17T12:16:31;6.50;;;4.10;;
8293;SDS011;4185;41.506;24.938;2023-05-17T12:19:01;6.83;;;3.60;;
8293;SDS011;4185;41.506;24.938;2023-05-17T12:21:28;6.33;;;4.03;;
8293;SDS011;4185;41.506;24.938;2023-05-17T12:23:56;6.87;;;3.73;;
8293;SDS011;4185;41.506;24.938;2023-05-17T12:26:23;9.63;;;4.50;;
8293;SDS011;4185;41.506;24.938;2023-05-17T12:28:53;5.93;;;4.30;;
8293;SDS011;4185;41.506;24.938;2023-05-17T12:31:24;8.73;;;4.27;;
8293;SDS011;4185;41.506;24.938;2023-05-17T12:33:57;8.17;;;3.53;;
8293;SDS011;4185;41.506;24.938;2023-05-17T12:36:26;8.80;;;3.93;;
8293;SDS011;4185;41.506;24.938;2023-05-17T12:38:56;7.43;;;4.27;;
8293;SDS011;4185;41.506;24.938;2023-05-17T12:41:24;8.87;;;4.37;;
8293;SDS011;4185;41.506;24.938;2023-05-17T12:43:51;5.07;;;3.73;;
8293;SDS011;4185;41.506;24.938;2023-05-17T12:46:20;7.47;;;3.70;;
8293;SDS011;4185;41.506;24.938;2023-05-17T12:48:49;7.13;;;4.73;;
8293;SDS011;4185;41.506;24.938;2023-05-17T12:51:16;6.77;;;3.17;;
8293;SDS011;4185;41.506;24.938;2023-05-17T12:53:48;3.97;;;3.23;;
8293;SDS011;4185;41.506;24.938;2023-05-17T12:56:17;5.57;;;3.20;;
8293;SDS011;4185;41.506;24.938;2023-05-17T13:01:34;4.33;;;2.97;;
8293;SDS011;4185;41.506;24.938;2023-05-17T13:04:04;7.97;;;4.23;;
8293;SDS011;4185;41.506;24.938;2023-05-17T13:06:41;6.53;;;4.93;;
8293;SDS011;4185;41.506;24.938;2023-05-17T13:09:09;7.20;;;4.30;;
8293;SDS011;4185;41.506;24.938;2023-05-17T13:11:39;4.00;;;3.10;;
8293;SDS011;4185;41.506;24.938;2023-05-17T13:14:06;11.20;;;8.33;;
8293;SDS011;4185;41.506;24.938;2023-05-17T13:16:36;8.43;;;4.10;;
8293;SDS011;4185;41.506;24.938;2023-05-17T13:19:10;7.73;;;3.83;;
8293;SDS011;4185;41.506;24.938;2023-05-17T13:21:37;6.87;;;3.83;;
8293;SDS011;4185;41.506;24.938;2023-05-17T13:24:04;5.70;;;3.37;;
8293;SDS011;4185;41.506;24.938;2023-05-17T13:26:34;8.03;;;4.23;;
8293;SDS011;4185;41.506;24.938;2023-05-17T13:29:02;5.10;;;4.57;;
8293;SDS011;4185;41.506;24.938;2023-05-17T13:31:29;7.17;;;3.93;;
8293;SDS011;4185;41.506;24.938;2023-05-17T13:33:56;10.10;;;5.30;;
8293;SDS011;4185;41.506;24.938;2023-05-17T13:36:22;7.73;;;5.97;;
8293;SDS011;4185;41.506;24.938;2023-05-17T13:38:49;6.83;;;5.63;;
8293;SDS011;4185;41.506;24.938;2023-05-17T13:41:16;7.47;;;5.57;;
8293;SDS011;4185;41.506;24.938;2023-05-17T13:43:43;5.33;;;4.27;;
8293;SDS011;4185;41.506;24.938;2023-05-17T13:46:11;7.57;;;4.40;;
8293;SDS011;4185;41.506;24.938;2023-05-17T13:48:38;7.50;;;3.60;;
8293;SDS011;4185;41.506;24.938;2023-05-17T13:51:05;4.67;;;2.40;;
8293;SDS011;4185;41.506;24.938;2023-05-17T13:53:32;6.23;;;2.13;;
8293;SDS011;4185;41.506;24.938;2023-05-17T13:55:59;7.53;;;2.73;;
8293;SDS011;4185;41.506;24.938;2023-05-17T13:58:25;7.03;;;3.93;;
8293;SDS011;4185;41.506;24.938;2023-05-17T14:00:52;9.87;;;4.47;;
8293;SDS011;4185;41.506;24.938;2023-05-17T14:03:21;16.03;;;14.33;;
8293;SDS011;4185;41.506;24.938;2023-05-17T14:05:48;5.70;;;4.13;;
8293;SDS011;4185;41.506;24.938;2023-05-17T14:08:16;6.87;;;3.00;;
8293;SDS011;4185;41.506;24.938;2023-05-17T14:10:44;10.33;;;3.57;;
8293;SDS011;4185;41.506;24.938;2023-05-17T14:13:11;5.20;;;2.73;;
8293;SDS011;4185;41.506;24.938;2023-05-17T14:15:38;9.73;;;4.00;;
8293;SDS011;4185;41.506;24.938;2023-05-17T14:18:05;14.33;;;5.73;;
8293;SDS011;4185;41.506;24.938;2023-05-17T14:20:34;9.13;;;5.10;;
8293;SDS011;4185;41.506;24.938;2023-05-17T14:23:01;4.50;;;3.57;;
8293;SDS011;4185;41.506;24.938;2023-05-17T14:25:27;5.60;;;3.90;;
8293;SDS011;4185;41.506;24.938;2023-05-17T14:27:54;7.53;;;3.70;;
8293;SDS011;4185;41.506;24.938;2023-05-17T14:30:21;6.13;;;4.13;;
8293;SDS011;4185;41.506;24.938;2023-05-17T14:32:48;8.07;;;4.60;;
8293;SDS011;4185;41.506;24.938;2023-05-17T14:35:15;8.80;;;4.40;;
8293;SDS011;4185;41.506;24.938;2023-05-17T14:37:44;16.40;;;4.83;;
8293;SDS011;4185;41.506;24.938;2023-05-17T14:40:11;5.60;;;3.47;;
8293;SDS011;4185;41.506;24.938;2023-05-17T14:42:38;7.97;;;4.90;;
8293;SDS011;4185;41.506;24.938;2023-05-17T14:45:06;9.43;;;4.37;;
8293;SDS011;4185;41.506;24.938;2023-05-17T14:47:33;9.93;;;5.93;;
8293;SDS011;4185;41.506;24.938;2023-05-17T14:50:00;9.20;;;5.00;;
8293;SDS011;4185;41.506;24.938;2023-05-17T14:52:27;9.70;;;6.33;;
8293;SDS011;4185;41.506;24.938;2023-05-17T14:54:56;4.80;;;3.60;;
8293;SDS011;4185;41.506;24.938;2023-05-17T14:57:23;12.73;;;8.30;;
8293;SDS011;4185;41.506;24.938;2023-05-17T14:59:50;6.70;;;5.40;;
8293;SDS011;4185;41.506;24.938;2023-05-17T15:02:18;11.60;;;5.53;;
8293;SDS011;4185;41.506;24.938;2023-05-17T15:04:45;12.17;;;7.97;;
8293;SDS011;4185;41.506;24.938;2023-05-17T15:07:12;12.93;;;8.37;;
8293;SDS011;4185;41.506;24.938;2023-05-17T15:09:39;16.83;;;9.60;;
8293;SDS011;4185;41.506;24.938;2023-05-17T15:12:09;11.27;;;7.23;;
8293;SDS011;4185;41.506;24.938;2023-05-17T15:14:37;19.87;;;10.57;;
8293;SDS011;4185;41.506;24.938;2023-05-17T15:17:04;10.83;;;7.17;;
8293;SDS011;4185;41.506;24.938;2023-05-17T15:19:31;10.63;;;6.33;;
8293;SDS011;4185;41.506;24.938;2023-05-17T15:21:58;25.13;;;11.57;;
8293;SDS011;4185;41.506;24.938;2023-05-17T15:24:26;20.37;;;11.00;;
8293;SDS011;4185;41.506;24.938;2023-05-17T15:26:53;10.67;;;6.37;;
8293;SDS011;4185;41.506;24.938;2023-05-17T15:29:21;9.37;;;6.67;;
8293;SDS011;4185;41.506;24.938;2023-05-17T15:31:49;12.10;;;7.67;;
8293;SDS011;4185;41.506;24.938;2023-05-17T15:34:16;10.97;;;7.27;;
8293;SDS011;4185;41.506;24.938;2023-05-17T15:36:43;14.60;;;8.87;;
8293;SDS011;4185;41.506;24.938;2023-05-17T15:39:09;16.37;;;10.73;;
8293;SDS011;4185;41.506;24.938;2023-05-17T15:41:36;20.80;;;11.93;;
8293;SDS011;4185;41.506;24.938;2023-05-17T15:44:04;24.70;;;12.00;;
8293;SDS011;4185;41.506;24.938;2023-05-17T15:46:34;22.97;;;13.67;;
8293;SDS011;4185;41.506;24.938;2023-05-17T15:49:01;14.87;;;9.97;;
8293;SDS011;4185;41.506;24.938;2023-05-17T15:51:28;14.73;;;9.27;;
8293;SDS011;4185;41.506;24.938;2023-05-17T15:53:55;13.57;;;8.30;;
8293;SDS011;4185;41.506;24.938;2023-05-17T15:56:22;29.03;;;16.53;;
8293;SDS011;4185;41.506;24.938;2023-05-17T15:58:49;22.50;;;14.00;;
8293;SDS011;4185;41.506;24.938;2023-05-17T16:01:16;20.77;;;13.60;;